« Back
NWS Peachtree City, Ga » Text Product » ATL Terminal Aerodrome Forecast


Printer-friendly Version
Current Version              Previous Versions:   1  2  3  4  5  6  7  8  9  

Terminal Aerodrome Forecast

843
FTUS42 KFFC 272159 AAB
TAFATL
TAF AMD
KATL 272159Z 2722/2824 08010G16KT P6SM SCT045
     FM280100 06010KT P6SM FEW050
     FM280900 08006KT P6SM BKN012
     FM281400 08012KT P6SM BKN020
     FM281700 10012KT P6SM BKN035=

USA.gov is the U.S. government's official web portal to all federal, state and local government web resources and services.